Aviation Digital Data Service (ADDS)

Output produced by METARs form (1113 UTC 24 April 2017)
found at http://www.aviationweather.gov/adds/metars/
 
SEGU 240920Z 2412/2512 30008KT 9999 SCT023 BKN100 
     FM241700 06005KT 9999 SCT026 SCT100 
     TEMPO 2422/2424 8000 SHRA 
     FM250000 21008KT 9999 BKN020 BKN100 
     TEMPO 2501/2504 8000 RA 
     FM250600 30005KT 9999 FEW010 BKN020 BKN090 TX32/2419Z TN25/2510Z
       
SELT 240920Z 2412/2512 17006KT 9999 SCT033 SCT100 
     FM241800 18012KT 9999 BKN033 SCT100 
     TEMPO 2419/2421 SHRA 
     FM250100 17004KT 9999 SCT010 BKN030 
     FM250600 36004KT 9999 SCT010 BKN030 TX20/2419Z TN10/2511Z
       
SEMT 240920Z 2412/2512 23010KT 9999 SCT030 
     FM250200 20004KT 9999 BKN020 
     FM250600 21004KT 9999 SCT023 SCT090 TX30/2420Z TN23/2510Z
       
SEQM 240920Z 2412/2512 VRB03KT 9999 SCT030 SCT100 
     FM241700 36012KT 9999 BKN030 SCT100 
     PROB30 
     TEMPO 2420/2423 TSRA SCT023CB 
     FM250100 03003KT 9999 SCT010 BKN020 
     FM250600 00000KT 6000 BCFG SCT005 OVC020 TX25/2419Z TN10/2511Z